sensor_id;sensor_type;location;lat;lon;timestamp;temperature;humidity
73643;DHT22;61938;48.652;9.292;2023-05-10T00:01:55;13.70;99.90
73643;DHT22;61938;48.652;9.292;2023-05-10T00:04:21;13.70;99.90
73643;DHT22;61938;48.652;9.292;2023-05-10T00:06:47;13.60;99.90
73643;DHT22;61938;48.652;9.292;2023-05-10T00:09:12;13.60;99.90
73643;DHT22;61938;48.652;9.292;2023-05-10T00:11:38;13.60;99.90
73643;DHT22;61938;48.652;9.292;2023-05-10T00:14:03;13.60;99.90
73643;DHT22;61938;48.652;9.292;2023-05-10T00:16:29;13.60;99.90
73643;DHT22;61938;48.652;9.292;2023-05-10T00:18:54;13.60;99.90
73643;DHT22;61938;48.652;9.292;2023-05-10T00:21:20;13.60;99.90
73643;DHT22;61938;48.652;9.292;2023-05-10T00:23:45;13.70;99.90
73643;DHT22;61938;48.652;9.292;2023-05-10T00:26:11;13.60;99.90
73643;DHT22;61938;48.652;9.292;2023-05-10T00:28:37;13.60;99.90
73643;DHT22;61938;48.652;9.292;2023-05-10T00:31:02;13.60;99.90
73643;DHT22;61938;48.652;9.292;2023-05-10T00:33:28;13.60;99.90
73643;DHT22;61938;48.652;9.292;2023-05-10T00:35:53;13.70;99.90
73643;DHT22;61938;48.652;9.292;2023-05-10T00:38:19;13.60;99.90
73643;DHT22;61938;48.652;9.292;2023-05-10T00:40:44;13.60;99.90
73643;DHT22;61938;48.652;9.292;2023-05-10T00:43:10;13.50;99.90
73643;DHT22;61938;48.652;9.292;2023-05-10T00:45:36;13.60;99.90
73643;DHT22;61938;48.652;9.292;2023-05-10T00:48:02;13.50;99.90
73643;DHT22;61938;48.652;9.292;2023-05-10T00:50:29;13.50;99.90
73643;DHT22;61938;48.652;9.292;2023-05-10T00:52:55;13.40;99.90
73643;DHT22;61938;48.652;9.292;2023-05-10T00:55:21;13.30;99.90
73643;DHT22;61938;48.652;9.292;2023-05-10T00:57:47;13.30;99.90
73643;DHT22;61938;48.652;9.292;2023-05-10T01:00:13;13.20;99.90
73643;DHT22;61938;48.652;9.292;2023-05-10T01:02:44;13.10;99.90
73643;DHT22;61938;48.652;9.292;2023-05-10T01:05:09;13.00;99.90
73643;DHT22;61938;48.652;9.292;2023-05-10T01:07:35;13.00;99.90
73643;DHT22;61938;48.652;9.292;2023-05-10T01:10:00;13.00;99.90
73643;DHT22;61938;48.652;9.292;2023-05-10T01:12:26;12.90;99.90
73643;DHT22;61938;48.652;9.292;2023-05-10T01:14:52;12.90;99.90
73643;DHT22;61938;48.652;9.292;2023-05-10T01:17:18;12.90;99.90
73643;DHT22;61938;48.652;9.292;2023-05-10T01:19:44;12.90;99.90
73643;DHT22;61938;48.652;9.292;2023-05-10T01:27:54;12.90;99.90
73643;DHT22;61938;48.652;9.292;2023-05-10T01:33:46;12.80;99.90
73643;DHT22;61938;48.652;9.292;2023-05-10T01:36:43;12.80;99.90
73643;DHT22;61938;48.652;9.292;2023-05-10T01:39:24;12.80;99.90
73643;DHT22;61938;48.652;9.292;2023-05-10T01:41:54;12.80;99.90
73643;DHT22;61938;48.652;9.292;2023-05-10T01:47:15;12.80;99.90
73643;DHT22;61938;48.652;9.292;2023-05-10T01:49:49;12.80;99.90
73643;DHT22;61938;48.652;9.292;2023-05-10T01:52:17;12.80;99.90
73643;DHT22;61938;48.652;9.292;2023-05-10T01:54:50;12.80;99.90
73643;DHT22;61938;48.652;9.292;2023-05-10T01:57:19;12.80;99.90
73643;DHT22;61938;48.652;9.292;2023-05-10T01:59:49;12.90;99.90
73643;DHT22;61938;48.652;9.292;2023-05-10T02:02:15;12.90;99.90
73643;DHT22;61938;48.652;9.292;2023-05-10T02:04:43;12.80;99.90
73643;DHT22;61938;48.652;9.292;2023-05-10T02:07:10;12.80;99.90
73643;DHT22;61938;48.652;9.292;2023-05-10T02:09:37;12.90;99.90
73643;DHT22;61938;48.652;9.292;2023-05-10T02:12:05;12.80;99.90
73643;DHT22;61938;48.652;9.292;2023-05-10T02:14:35;12.80;99.90
73643;DHT22;61938;48.652;9.292;2023-05-10T02:17:03;12.80;99.90
73643;DHT22;61938;48.652;9.292;2023-05-10T02:19:31;12.70;99.90
73643;DHT22;61938;48.652;9.292;2023-05-10T02:21:58;12.70;99.90
73643;DHT22;61938;48.652;9.292;2023-05-10T02:24:25;12.80;99.90
73643;DHT22;61938;48.652;9.292;2023-05-10T02:26:53;12.70;99.90
73643;DHT22;61938;48.652;9.292;2023-05-10T02:29:22;12.70;99.90
73643;DHT22;61938;48.652;9.292;2023-05-10T02:31:49;12.70;99.90
73643;DHT22;61938;48.652;9.292;2023-05-10T02:34:16;12.70;99.90
73643;DHT22;61938;48.652;9.292;2023-05-10T02:36:43;12.70;99.90
73643;DHT22;61938;48.652;9.292;2023-05-10T02:39:09;12.60;99.90
73643;DHT22;61938;48.652;9.292;2023-05-10T02:41:38;12.60;99.90
73643;DHT22;61938;48.652;9.292;2023-05-10T02:44:06;12.60;99.90
73643;DHT22;61938;48.652;9.292;2023-05-10T02:46:33;12.60;99.90
73643;DHT22;61938;48.652;9.292;2023-05-10T02:48:59;12.50;99.90
73643;DHT22;61938;48.652;9.292;2023-05-10T02:51:30;12.50;99.90
73643;DHT22;61938;48.652;9.292;2023-05-10T02:54:06;12.50;99.90
73643;DHT22;61938;48.652;9.292;2023-05-10T02:56:36;12.90;99.90
73643;DHT22;61938;48.652;9.292;2023-05-10T02:59:04;12.50;99.90
73643;DHT22;61938;48.652;9.292;2023-05-10T03:01:30;12.50;99.90
73643;DHT22;61938;48.652;9.292;2023-05-10T03:03:55;12.50;99.90
73643;DHT22;61938;48.652;9.292;2023-05-10T03:06:21;12.50;99.90
73643;DHT22;61938;48.652;9.292;2023-05-10T03:08:46;12.50;99.90
73643;DHT22;61938;48.652;9.292;2023-05-10T03:11:32;12.50;99.90
73643;DHT22;61938;48.652;9.292;2023-05-10T03:17:10;12.40;99.90
73643;DHT22;61938;48.652;9.292;2023-05-10T03:19:52;12.40;99.90
73643;DHT22;61938;48.652;9.292;2023-05-10T03:22:30;12.40;99.90
73643;DHT22;61938;48.652;9.292;2023-05-10T03:24:57;12.30;99.90
73643;DHT22;61938;48.652;9.292;2023-05-10T03:27:23;12.30;99.90
73643;DHT22;61938;48.652;9.292;2023-05-10T03:29:51;12.30;99.90
73643;DHT22;61938;48.652;9.292;2023-05-10T03:32:17;12.20;99.90
73643;DHT22;61938;48.652;9.292;2023-05-10T03:34:43;12.20;99.90
73643;DHT22;61938;48.652;9.292;2023-05-10T03:37:09;12.20;99.90
73643;DHT22;61938;48.652;9.292;2023-05-10T03:39:34;12.20;99.90
73643;DHT22;61938;48.652;9.292;2023-05-10T03:42:00;12.20;99.90
73643;DHT22;61938;48.652;9.292;2023-05-10T03:44:26;12.20;99.90
73643;DHT22;61938;48.652;9.292;2023-05-10T03:46:51;12.20;99.90
73643;DHT22;61938;48.652;9.292;2023-05-10T03:49:17;12.20;99.90
73643;DHT22;61938;48.652;9.292;2023-05-10T03:51:42;12.20;99.90
73643;DHT22;61938;48.652;9.292;2023-05-10T03:54:07;12.20;99.90
73643;DHT22;61938;48.652;9.292;2023-05-10T03:56:33;12.20;99.90
73643;DHT22;61938;48.652;9.292;2023-05-10T03:58:58;12.20;99.90
73643;DHT22;61938;48.652;9.292;2023-05-10T04:01:24;12.20;99.90
73643;DHT22;61938;48.652;9.292;2023-05-10T04:03:50;12.20;99.90
73643;DHT22;61938;48.652;9.292;2023-05-10T04:06:15;12.20;99.90
73643;DHT22;61938;48.652;9.292;2023-05-10T04:08:41;12.20;99.90
73643;DHT22;61938;48.652;9.292;2023-05-10T04:11:08;12.20;99.90
73643;DHT22;61938;48.652;9.292;2023-05-10T04:13:34;12.20;99.90
73643;DHT22;61938;48.652;9.292;2023-05-10T04:15:59;12.20;99.90
73643;DHT22;61938;48.652;9.292;2023-05-10T04:18:25;12.20;99.90
73643;DHT22;61938;48.652;9.292;2023-05-10T04:20:51;12.10;99.90
73643;DHT22;61938;48.652;9.292;2023-05-10T04:23:16;12.10;99.90
73643;DHT22;61938;48.652;9.292;2023-05-10T04:25:42;12.10;99.90
73643;DHT22;61938;48.652;9.292;2023-05-10T04:28:08;12.10;99.90
73643;DHT22;61938;48.652;9.292;2023-05-10T04:30:34;12.10;99.90
73643;DHT22;61938;48.652;9.292;2023-05-10T04:33:00;12.10;99.90
73643;DHT22;61938;48.652;9.292;2023-05-10T04:35:26;12.10;99.90
73643;DHT22;61938;48.652;9.292;2023-05-10T04:37:52;12.10;99.90
73643;DHT22;61938;48.652;9.292;2023-05-10T04:40:17;12.20;99.90
73643;DHT22;61938;48.652;9.292;2023-05-10T04:42:44;12.20;99.90
73643;DHT22;61938;48.652;9.292;2023-05-10T04:45:09;12.20;99.90
73643;DHT22;61938;48.652;9.292;2023-05-10T04:47:35;12.20;99.90
73643;DHT22;61938;48.652;9.292;2023-05-10T04:50:03;12.20;99.90
73643;DHT22;61938;48.652;9.292;2023-05-10T04:52:28;12.20;99.90
73643;DHT22;61938;48.652;9.292;2023-05-10T04:54:54;12.20;99.90
73643;DHT22;61938;48.652;9.292;2023-05-10T04:57:20;12.10;99.90
73643;DHT22;61938;48.652;9.292;2023-05-10T04:59:45;12.10;99.90
73643;DHT22;61938;48.652;9.292;2023-05-10T05:02:11;12.10;99.90
73643;DHT22;61938;48.652;9.292;2023-05-10T05:04:36;12.20;99.90
73643;DHT22;61938;48.652;9.292;2023-05-10T05:07:02;12.20;99.90
73643;DHT22;61938;48.652;9.292;2023-05-10T05:09:27;12.20;99.90
73643;DHT22;61938;48.652;9.292;2023-05-10T05:11:53;12.30;99.90
73643;DHT22;61938;48.652;9.292;2023-05-10T05:14:18;12.30;99.90
73643;DHT22;61938;48.652;9.292;2023-05-10T05:16:46;12.30;99.90
73643;DHT22;61938;48.652;9.292;2023-05-10T05:19:11;12.30;99.90
73643;DHT22;61938;48.652;9.292;2023-05-10T05:21:37;12.40;99.90
73643;DHT22;61938;48.652;9.292;2023-05-10T05:24:03;12.40;99.90
73643;DHT22;61938;48.652;9.292;2023-05-10T05:26:29;12.40;99.90
73643;DHT22;61938;48.652;9.292;2023-05-10T05:28:54;12.40;99.90
73643;DHT22;61938;48.652;9.292;2023-05-10T05:31:20;12.40;99.90
73643;DHT22;61938;48.652;9.292;2023-05-10T05:33:46;12.50;99.90
73643;DHT22;61938;48.652;9.292;2023-05-10T05:36:11;12.50;99.90
73643;DHT22;61938;48.652;9.292;2023-05-10T05:38:37;12.50;99.90
73643;DHT22;61938;48.652;9.292;2023-05-10T05:41:02;12.60;99.90
73643;DHT22;61938;48.652;9.292;2023-05-10T05:43:28;12.60;99.90
73643;DHT22;61938;48.652;9.292;2023-05-10T05:45:54;12.60;99.90
73643;DHT22;61938;48.652;9.292;2023-05-10T05:48:20;12.70;99.90
73643;DHT22;61938;48.652;9.292;2023-05-10T05:50:45;12.70;99.90
73643;DHT22;61938;48.652;9.292;2023-05-10T05:53:11;12.80;99.90
73643;DHT22;61938;48.652;9.292;2023-05-10T05:55:37;12.80;99.90
73643;DHT22;61938;48.652;9.292;2023-05-10T05:58:02;12.80;99.90
73643;DHT22;61938;48.652;9.292;2023-05-10T06:00:28;12.80;99.90
73643;DHT22;61938;48.652;9.292;2023-05-10T06:02:54;12.80;99.90
73643;DHT22;61938;48.652;9.292;2023-05-10T06:05:19;12.90;99.90
73643;DHT22;61938;48.652;9.292;2023-05-10T06:07:46;12.90;99.90
73643;DHT22;61938;48.652;9.292;2023-05-10T06:10:11;12.90;99.90
73643;DHT22;61938;48.652;9.292;2023-05-10T06:12:37;12.90;99.90
73643;DHT22;61938;48.652;9.292;2023-05-10T06:15:03;13.00;99.90
73643;DHT22;61938;48.652;9.292;2023-05-10T06:17:28;13.00;99.90
73643;DHT22;61938;48.652;9.292;2023-05-10T06:19:55;13.00;99.90
73643;DHT22;61938;48.652;9.292;2023-05-10T06:22:20;13.10;99.90
73643;DHT22;61938;48.652;9.292;2023-05-10T06:24:48;13.10;99.90
73643;DHT22;61938;48.652;9.292;2023-05-10T06:27:13;13.20;99.90
73643;DHT22;61938;48.652;9.292;2023-05-10T06:29:39;13.20;99.90
73643;DHT22;61938;48.652;9.292;2023-05-10T06:32:04;13.20;99.90
73643;DHT22;61938;48.652;9.292;2023-05-10T06:34:30;13.20;99.90
73643;DHT22;61938;48.652;9.292;2023-05-10T06:36:56;13.20;99.90
73643;DHT22;61938;48.652;9.292;2023-05-10T06:39:21;13.20;99.90
73643;DHT22;61938;48.652;9.292;2023-05-10T06:41:47;13.20;99.90
73643;DHT22;61938;48.652;9.292;2023-05-10T06:44:13;13.20;99.90
73643;DHT22;61938;48.652;9.292;2023-05-10T06:46:38;13.10;99.90
73643;DHT22;61938;48.652;9.292;2023-05-10T06:49:04;13.10;99.90
73643;DHT22;61938;48.652;9.292;2023-05-10T06:51:29;13.10;99.90
73643;DHT22;61938;48.652;9.292;2023-05-10T06:53:55;13.10;99.90
73643;DHT22;61938;48.652;9.292;2023-05-10T06:56:20;13.10;99.90
73643;DHT22;61938;48.652;9.292;2023-05-10T06:58:47;13.20;99.90
73643;DHT22;61938;48.652;9.292;2023-05-10T07:01:13;13.20;99.90
73643;DHT22;61938;48.652;9.292;2023-05-10T07:03:38;13.20;99.90
73643;DHT22;61938;48.652;9.292;2023-05-10T07:06:04;13.20;99.90
73643;DHT22;61938;48.652;9.292;2023-05-10T07:08:34;13.20;99.90
73643;DHT22;61938;48.652;9.292;2023-05-10T07:11:03;13.20;99.90
73643;DHT22;61938;48.652;9.292;2023-05-10T07:13:30;13.30;99.90
73643;DHT22;61938;48.652;9.292;2023-05-10T07:15:56;13.30;99.90
73643;DHT22;61938;48.652;9.292;2023-05-10T07:18:21;13.30;99.90
73643;DHT22;61938;48.652;9.292;2023-05-10T07:20:47;13.30;99.90
73643;DHT22;61938;48.652;9.292;2023-05-10T07:23:12;13.50;99.90
73643;DHT22;61938;48.652;9.292;2023-05-10T07:25:38;13.50;99.90
73643;DHT22;61938;48.652;9.292;2023-05-10T07:28:03;13.60;99.90
73643;DHT22;61938;48.652;9.292;2023-05-10T07:30:29;13.70;99.90
73643;DHT22;61938;48.652;9.292;2023-05-10T07:32:55;13.70;99.90
73643;DHT22;61938;48.652;9.292;2023-05-10T07:35:20;13.80;99.90
73643;DHT22;61938;48.652;9.292;2023-05-10T07:37:46;13.80;99.90
73643;DHT22;61938;48.652;9.292;2023-05-10T07:40:11;13.80;99.90
73643;DHT22;61938;48.652;9.292;2023-05-10T07:42:37;13.90;99.90
73643;DHT22;61938;48.652;9.292;2023-05-10T07:45:03;13.90;99.90
73643;DHT22;61938;48.652;9.292;2023-05-10T07:47:29;14.00;99.90
73643;DHT22;61938;48.652;9.292;2023-05-10T07:49:54;14.00;99.90
73643;DHT22;61938;48.652;9.292;2023-05-10T07:52:20;14.00;99.90
73643;DHT22;61938;48.652;9.292;2023-05-10T07:54:46;14.00;99.90
73643;DHT22;61938;48.652;9.292;2023-05-10T07:57:11;14.00;99.90
73643;DHT22;61938;48.652;9.292;2023-05-10T07:59:39;14.00;99.90
73643;DHT22;61938;48.652;9.292;2023-05-10T08:02:05;13.90;99.90
73643;DHT22;61938;48.652;9.292;2023-05-10T08:04:31;13.90;99.90
73643;DHT22;61938;48.652;9.292;2023-05-10T08:06:56;13.90;99.90
73643;DHT22;61938;48.652;9.292;2023-05-10T08:09:22;13.90;99.90
73643;DHT22;61938;48.652;9.292;2023-05-10T08:11:49;13.80;99.90
73643;DHT22;61938;48.652;9.292;2023-05-10T08:14:15;13.80;99.90
73643;DHT22;61938;48.652;9.292;2023-05-10T08:16:40;13.80;99.90
73643;DHT22;61938;48.652;9.292;2023-05-10T08:19:05;13.80;99.90
73643;DHT22;61938;48.652;9.292;2023-05-10T08:21:31;13.80;99.90
73643;DHT22;61938;48.652;9.292;2023-05-10T08:23:57;13.80;99.90
73643;DHT22;61938;48.652;9.292;2023-05-10T08:26:23;13.90;99.90
73643;DHT22;61938;48.652;9.292;2023-05-10T08:28:48;13.90;99.90
73643;DHT22;61938;48.652;9.292;2023-05-10T08:31:14;14.00;99.90
73643;DHT22;61938;48.652;9.292;2023-05-10T08:33:40;14.10;99.90
73643;DHT22;61938;48.652;9.292;2023-05-10T08:36:05;14.10;99.90
73643;DHT22;61938;48.652;9.292;2023-05-10T08:38:31;14.20;99.90
73643;DHT22;61938;48.652;9.292;2023-05-10T08:40:56;14.20;99.90
73643;DHT22;61938;48.652;9.292;2023-05-10T08:43:28;14.20;99.90
73643;DHT22;61938;48.652;9.292;2023-05-10T08:45:55;14.20;99.90
73643;DHT22;61938;48.652;9.292;2023-05-10T08:48:23;14.30;99.90
73643;DHT22;61938;48.652;9.292;2023-05-10T08:50:52;14.40;99.90
73643;DHT22;61938;48.652;9.292;2023-05-10T08:53:19;14.50;99.90
73643;DHT22;61938;48.652;9.292;2023-05-10T08:55:45;14.50;99.90
73643;DHT22;61938;48.652;9.292;2023-05-10T08:58:11;14.60;99.90
73643;DHT22;61938;48.652;9.292;2023-05-10T09:00:36;14.50;99.90
73643;DHT22;61938;48.652;9.292;2023-05-10T09:03:04;14.60;99.90
73643;DHT22;61938;48.652;9.292;2023-05-10T09:05:30;14.60;99.90
73643;DHT22;61938;48.652;9.292;2023-05-10T09:07:56;14.70;99.90
73643;DHT22;61938;48.652;9.292;2023-05-10T09:10:22;14.80;99.90
73643;DHT22;61938;48.652;9.292;2023-05-10T09:12:51;14.90;99.90
73643;DHT22;61938;48.652;9.292;2023-05-10T09:15:17;15.00;99.90
73643;DHT22;61938;48.652;9.292;2023-05-10T09:17:44;15.00;99.90
73643;DHT22;61938;48.652;9.292;2023-05-10T09:20:10;15.10;99.90
73643;DHT22;61938;48.652;9.292;2023-05-10T09:22:36;15.20;99.90
73643;DHT22;61938;48.652;9.292;2023-05-10T09:25:10;15.30;99.90
73643;DHT22;61938;48.652;9.292;2023-05-10T09:27:41;15.30;99.90
73643;DHT22;61938;48.652;9.292;2023-05-10T09:30:07;15.40;99.90
73643;DHT22;61938;48.652;9.292;2023-05-10T09:32:42;15.50;99.90
73643;DHT22;61938;48.652;9.292;2023-05-10T09:35:16;15.50;99.90
73643;DHT22;61938;48.652;9.292;2023-05-10T09:37:44;15.60;99.90
73643;DHT22;61938;48.652;9.292;2023-05-10T09:40:15;15.70;99.90
73643;DHT22;61938;48.652;9.292;2023-05-10T09:42:42;15.70;99.90
73643;DHT22;61938;48.652;9.292;2023-05-10T09:45:15;15.70;99.90
73643;DHT22;61938;48.652;9.292;2023-05-10T09:47:41;15.70;99.90
73643;DHT22;61938;48.652;9.292;2023-05-10T09:50:06;15.70;99.90
73643;DHT22;61938;48.652;9.292;2023-05-10T09:52:53;15.70;99.90
73643;DHT22;61938;48.652;9.292;2023-05-10T09:55:21;15.70;99.90
73643;DHT22;61938;48.652;9.292;2023-05-10T09:57:47;15.70;99.90
73643;DHT22;61938;48.652;9.292;2023-05-10T10:00:19;15.80;99.90
73643;DHT22;61938;48.652;9.292;2023-05-10T10:02:56;15.80;99.90
73643;DHT22;61938;48.652;9.292;2023-05-10T10:05:32;15.80;99.90
73643;DHT22;61938;48.652;9.292;2023-05-10T10:07:58;15.70;99.90
73643;DHT22;61938;48.652;9.292;2023-05-10T10:10:25;15.60;99.90
73643;DHT22;61938;48.652;9.292;2023-05-10T10:12:51;15.40;99.90
73643;DHT22;61938;48.652;9.292;2023-05-10T10:15:16;15.40;99.90
73643;DHT22;61938;48.652;9.292;2023-05-10T10:17:43;15.30;99.90
73643;DHT22;61938;48.652;9.292;2023-05-10T10:20:09;15.40;99.90
73643;DHT22;61938;48.652;9.292;2023-05-10T10:22:36;15.40;99.90
73643;DHT22;61938;48.652;9.292;2023-05-10T10:25:02;15.40;99.90
73643;DHT22;61938;48.652;9.292;2023-05-10T10:35:32;16.00;99.90
73643;DHT22;61938;48.652;9.292;2023-05-10T10:37:58;16.00;99.90
73643;DHT22;61938;48.652;9.292;2023-05-10T10:40:31;16.00;99.90
73643;DHT22;61938;48.652;9.292;2023-05-10T10:42:58;16.00;99.90
73643;DHT22;61938;48.652;9.292;2023-05-10T10:45:43;16.00;99.90
73643;DHT22;61938;48.652;9.292;2023-05-10T10:48:24;16.00;99.90
73643;DHT22;61938;48.652;9.292;2023-05-10T10:50:57;15.90;99.90
73643;DHT22;61938;48.652;9.292;2023-05-10T10:53:26;15.90;99.90
73643;DHT22;61938;48.652;9.292;2023-05-10T10:56:06;15.90;99.90
73643;DHT22;61938;48.652;9.292;2023-05-10T10:58:33;16.00;99.90
73643;DHT22;61938;48.652;9.292;2023-05-10T11:01:11;16.10;99.90
73643;DHT22;61938;48.652;9.292;2023-05-10T11:03:37;16.10;99.90
73643;DHT22;61938;48.652;9.292;2023-05-10T11:06:03;16.00;99.90
73643;DHT22;61938;48.652;9.292;2023-05-10T11:08:30;15.90;99.90
73643;DHT22;61938;48.652;9.292;2023-05-10T11:13:44;15.80;99.90
73643;DHT22;61938;48.652;9.292;2023-05-10T11:16:19;15.70;99.90
73643;DHT22;61938;48.652;9.292;2023-05-10T11:19:11;15.60;99.90
73643;DHT22;61938;48.652;9.292;2023-05-10T11:21:51;15.50;99.90
73643;DHT22;61938;48.652;9.292;2023-05-10T11:24:21;15.30;99.90
73643;DHT22;61938;48.652;9.292;2023-05-10T11:26:50;15.00;99.90
73643;DHT22;61938;48.652;9.292;2023-05-10T11:29:16;14.60;99.90
73643;DHT22;61938;48.652;9.292;2023-05-10T11:31:45;14.30;99.90
73643;DHT22;61938;48.652;9.292;2023-05-10T11:34:22;13.90;99.90
73643;DHT22;61938;48.652;9.292;2023-05-10T11:36:51;13.60;99.90
73643;DHT22;61938;48.652;9.292;2023-05-10T11:39:19;13.40;99.90
73643;DHT22;61938;48.652;9.292;2023-05-10T11:41:48;13.10;99.90
73643;DHT22;61938;48.652;9.292;2023-05-10T11:44:14;12.90;99.90
73643;DHT22;61938;48.652;9.292;2023-05-10T11:46:39;12.70;99.90
73643;DHT22;61938;48.652;9.292;2023-05-10T11:49:07;12.60;99.90
73643;DHT22;61938;48.652;9.292;2023-05-10T11:51:36;12.50;99.90
73643;DHT22;61938;48.652;9.292;2023-05-10T11:54:06;12.40;99.90
73643;DHT22;61938;48.652;9.292;2023-05-10T11:56:36;12.30;99.90
73643;DHT22;61938;48.652;9.292;2023-05-10T11:59:03;12.30;99.90
73643;DHT22;61938;48.652;9.292;2023-05-10T12:01:29;12.30;99.90
73643;DHT22;61938;48.652;9.292;2023-05-10T12:03:56;12.30;99.90
73643;DHT22;61938;48.652;9.292;2023-05-10T12:06:27;12.40;99.90
73643;DHT22;61938;48.652;9.292;2023-05-10T12:08:53;12.50;99.90
73643;DHT22;61938;48.652;9.292;2023-05-10T12:11:19;12.60;99.90
73643;DHT22;61938;48.652;9.292;2023-05-10T12:13:47;12.70;99.90
73643;DHT22;61938;48.652;9.292;2023-05-10T12:16:20;12.70;99.90
73643;DHT22;61938;48.652;9.292;2023-05-10T12:18:50;12.80;99.90
73643;DHT22;61938;48.652;9.292;2023-05-10T12:21:19;12.80;99.90
73643;DHT22;61938;48.652;9.292;2023-05-10T12:23:46;12.80;99.90
73643;DHT22;61938;48.652;9.292;2023-05-10T12:26:13;12.90;99.90
73643;DHT22;61938;48.652;9.292;2023-05-10T12:28:38;13.10;99.90
73643;DHT22;61938;48.652;9.292;2023-05-10T12:31:07;13.30;99.90
73643;DHT22;61938;48.652;9.292;2023-05-10T12:33:41;13.40;99.90
73643;DHT22;61938;48.652;9.292;2023-05-10T12:36:09;13.40;99.90
73643;DHT22;61938;48.652;9.292;2023-05-10T12:38:37;13.50;99.90
73643;DHT22;61938;48.652;9.292;2023-05-10T12:41:13;13.50;99.90
73643;DHT22;61938;48.652;9.292;2023-05-10T12:43:40;13.50;99.90
73643;DHT22;61938;48.652;9.292;2023-05-10T12:46:14;13.40;99.90
73643;DHT22;61938;48.652;9.292;2023-05-10T12:48:41;13.50;99.90
73643;DHT22;61938;48.652;9.292;2023-05-10T12:51:07;13.40;99.90
73643;DHT22;61938;48.652;9.292;2023-05-10T12:53:35;13.50;99.90
73643;DHT22;61938;48.652;9.292;2023-05-10T12:56:00;13.50;99.90
73643;DHT22;61938;48.652;9.292;2023-05-10T12:58:26;13.60;99.90
73643;DHT22;61938;48.652;9.292;2023-05-10T13:00:52;13.70;99.90
73643;DHT22;61938;48.652;9.292;2023-05-10T13:03:17;13.80;99.90
73643;DHT22;61938;48.652;9.292;2023-05-10T13:05:43;13.90;99.90
73643;DHT22;61938;48.652;9.292;2023-05-10T13:08:09;13.90;99.90
73643;DHT22;61938;48.652;9.292;2023-05-10T13:10:34;13.90;99.90
73643;DHT22;61938;48.652;9.292;2023-05-10T13:13:00;14.10;99.90
73643;DHT22;61938;48.652;9.292;2023-05-10T13:15:26;14.40;99.90
73643;DHT22;61938;48.652;9.292;2023-05-10T13:17:53;14.50;99.90
73643;DHT22;61938;48.652;9.292;2023-05-10T13:20:18;14.60;99.90
73643;DHT22;61938;48.652;9.292;2023-05-10T13:22:44;14.50;99.90
73643;DHT22;61938;48.652;9.292;2023-05-10T13:25:10;14.60;99.90
73643;DHT22;61938;48.652;9.292;2023-05-10T13:27:37;14.70;99.90
73643;DHT22;61938;48.652;9.292;2023-05-10T13:30:03;14.70;99.90
73643;DHT22;61938;48.652;9.292;2023-05-10T13:32:29;14.80;99.90
73643;DHT22;61938;48.652;9.292;2023-05-10T13:34:55;14.90;99.90
73643;DHT22;61938;48.652;9.292;2023-05-10T13:37:21;15.10;99.90
73643;DHT22;61938;48.652;9.292;2023-05-10T13:39:47;15.10;99.90
73643;DHT22;61938;48.652;9.292;2023-05-10T13:42:13;15.20;99.90
73643;DHT22;61938;48.652;9.292;2023-05-10T13:44:39;15.20;99.90
73643;DHT22;61938;48.652;9.292;2023-05-10T13:47:04;15.20;99.90
73643;DHT22;61938;48.652;9.292;2023-05-10T13:49:30;15.30;99.90
73643;DHT22;61938;48.652;9.292;2023-05-10T13:51:56;15.30;99.90
73643;DHT22;61938;48.652;9.292;2023-05-10T13:54:21;15.30;99.90
73643;DHT22;61938;48.652;9.292;2023-05-10T13:56:47;16.50;99.90
73643;DHT22;61938;48.652;9.292;2023-05-10T13:59:14;15.30;99.90
73643;DHT22;61938;48.652;9.292;2023-05-10T14:01:40;16.40;99.90
73643;DHT22;61938;48.652;9.292;2023-05-10T14:04:05;15.10;99.90
73643;DHT22;61938;48.652;9.292;2023-05-10T14:06:32;16.10;99.90
73643;DHT22;61938;48.652;9.292;2023-05-10T14:08:57;15.20;99.90
73643;DHT22;61938;48.652;9.292;2023-05-10T14:11:23;15.20;99.90
73643;DHT22;61938;48.652;9.292;2023-05-10T14:13:51;15.20;99.90
73643;DHT22;61938;48.652;9.292;2023-05-10T14:16:17;15.40;99.90
73643;DHT22;61938;48.652;9.292;2023-05-10T14:18:43;16.60;99.90
73643;DHT22;61938;48.652;9.292;2023-05-10T14:21:08;15.30;99.90
73643;DHT22;61938;48.652;9.292;2023-05-10T14:23:34;15.40;99.90
73643;DHT22;61938;48.652;9.292;2023-05-10T14:25:59;14.00;99.90
73643;DHT22;61938;48.652;9.292;2023-05-10T14:28:25;15.40;99.90
73643;DHT22;61938;48.652;9.292;2023-05-10T14:30:51;15.40;99.90
73643;DHT22;61938;48.652;9.292;2023-05-10T14:33:16;15.40;99.90
73643;DHT22;61938;48.652;9.292;2023-05-10T14:35:42;16.50;99.90
73643;DHT22;61938;48.652;9.292;2023-05-10T14:38:08;15.50;99.90
73643;DHT22;61938;48.652;9.292;2023-05-10T14:40:33;15.60;99.90
73643;DHT22;61938;48.652;9.292;2023-05-10T14:42:59;15.60;99.90
73643;DHT22;61938;48.652;9.292;2023-05-10T14:45:25;15.60;99.90
73643;DHT22;61938;48.652;9.292;2023-05-10T14:47:51;15.60;99.90
73643;DHT22;61938;48.652;9.292;2023-05-10T14:50:16;15.70;99.90
73643;DHT22;61938;48.652;9.292;2023-05-10T14:52:43;15.40;99.90
73643;DHT22;61938;48.652;9.292;2023-05-10T14:55:09;15.40;99.90
73643;DHT22;61938;48.652;9.292;2023-05-10T14:57:38;15.40;99.90
73643;DHT22;61938;48.652;9.292;2023-05-10T15:00:04;15.40;99.90
73643;DHT22;61938;48.652;9.292;2023-05-10T15:02:31;15.40;99.90
73643;DHT22;61938;48.652;9.292;2023-05-10T15:04:56;15.40;99.90
73643;DHT22;61938;48.652;9.292;2023-05-10T15:07:22;15.40;99.90
73643;DHT22;61938;48.652;9.292;2023-05-10T15:09:48;15.40;99.90
73643;DHT22;61938;48.652;9.292;2023-05-10T15:12:14;15.40;99.90
73643;DHT22;61938;48.652;9.292;2023-05-10T15:14:40;15.40;99.90
73643;DHT22;61938;48.652;9.292;2023-05-10T15:17:06;15.50;99.90
73643;DHT22;61938;48.652;9.292;2023-05-10T15:19:32;15.50;99.90
73643;DHT22;61938;48.652;9.292;2023-05-10T15:21:58;15.50;99.90
73643;DHT22;61938;48.652;9.292;2023-05-10T15:24:24;15.50;99.90
73643;DHT22;61938;48.652;9.292;2023-05-10T15:26:50;15.50;99.90
73643;DHT22;61938;48.652;9.292;2023-05-10T15:29:15;15.50;99.90
73643;DHT22;61938;48.652;9.292;2023-05-10T15:31:49;15.50;99.90
73643;DHT22;61938;48.652;9.292;2023-05-10T15:34:15;15.50;99.90
73643;DHT22;61938;48.652;9.292;2023-05-10T15:36:41;15.60;99.90
73643;DHT22;61938;48.652;9.292;2023-05-10T15:39:07;16.00;99.90
73643;DHT22;61938;48.652;9.292;2023-05-10T15:41:34;15.60;99.90
73643;DHT22;61938;48.652;9.292;2023-05-10T15:44:00;15.60;99.90
73643;DHT22;61938;48.652;9.292;2023-05-10T15:46:27;15.70;99.90
73643;DHT22;61938;48.652;9.292;2023-05-10T15:48:52;15.70;99.90
73643;DHT22;61938;48.652;9.292;2023-05-10T15:51:18;15.80;99.90
73643;DHT22;61938;48.652;9.292;2023-05-10T15:53:44;15.70;99.90
73643;DHT22;61938;48.652;9.292;2023-05-10T15:56:13;15.60;99.90